sensor_id;sensor_type;location;lat;lon;timestamp;pressure;altitude;pressure_sealevel;temperature;humidity
65280;BME280;51878;55.748;48.742;2023-03-01T00:04:39;96991.88;;;-5.08;100.00
65280;BME280;51878;55.748;48.742;2023-03-01T00:09:42;97003.50;;;-5.01;100.00
65280;BME280;51878;55.748;48.742;2023-03-01T00:14:44;96980.41;;;-5.16;100.00
65280;BME280;51878;55.748;48.742;2023-03-01T00:19:46;96988.66;;;-5.20;100.00
65280;BME280;51878;55.748;48.742;2023-03-01T00:24:48;96986.97;;;-5.21;100.00
65280;BME280;51878;55.748;48.742;2023-03-01T00:29:53;96976.56;;;-5.22;100.00
65280;BME280;51878;55.748;48.742;2023-03-01T00:34:55;96979.03;;;-5.21;100.00
65280;BME280;51878;55.748;48.742;2023-03-01T00:39:58;96898.75;;;-5.64;100.00
65280;BME280;51878;55.748;48.742;2023-03-01T00:45:00;97038.25;;;-4.78;100.00
65280;BME280;51878;55.748;48.742;2023-03-01T00:50:04;96948.72;;;-5.34;100.00
65280;BME280;51878;55.748;48.742;2023-03-01T00:55:07;96888.59;;;-5.58;100.00
65280;BME280;51878;55.748;48.742;2023-03-01T01:00:10;97027.56;;;-4.76;100.00
65280;BME280;51878;55.748;48.742;2023-03-01T01:05:13;96955.34;;;-5.30;100.00
65280;BME280;51878;55.748;48.742;2023-03-01T01:10:16;96893.53;;;-5.73;100.00
65280;BME280;51878;55.748;48.742;2023-03-01T01:15:18;96986.00;;;-5.20;100.00
65280;BME280;51878;55.748;48.742;2023-03-01T01:20:20;96950.56;;;-5.45;100.00
65280;BME280;51878;55.748;48.742;2023-03-01T01:25:23;96845.25;;;-6.19;100.00
65280;BME280;51878;55.748;48.742;2023-03-01T01:30:27;97001.41;;;-5.15;100.00
65280;BME280;51878;55.748;48.742;2023-03-01T01:35:29;96998.91;;;-5.16;100.00
65280;BME280;51878;55.748;48.742;2023-03-01T01:40:31;96935.94;;;-5.57;100.00
65280;BME280;51878;55.748;48.742;2023-03-01T01:45:35;96938.72;;;-5.58;100.00
65280;BME280;51878;55.748;48.742;2023-03-01T01:50:39;96981.16;;;-5.24;100.00
65280;BME280;51878;55.748;48.742;2023-03-01T01:55:45;96914.63;;;-5.73;100.00
65280;BME280;51878;55.748;48.742;2023-03-01T02:00:49;96990.22;;;-5.27;100.00
65280;BME280;51878;55.748;48.742;2023-03-01T02:06:03;96985.88;;;-5.18;100.00
65280;BME280;51878;55.748;48.742;2023-03-01T02:11:06;96847.97;;;-6.11;100.00
65280;BME280;51878;55.748;48.742;2023-03-01T02:16:12;96979.81;;;-5.28;100.00
65280;BME280;51878;55.748;48.742;2023-03-01T02:21:34;96975.88;;;-5.42;100.00
65280;BME280;51878;55.748;48.742;2023-03-01T02:26:47;96733.38;;;-6.80;100.00
65280;BME280;51878;55.748;48.742;2023-03-01T02:31:51;96915.63;;;-5.74;100.00
65280;BME280;51878;55.748;48.742;2023-03-01T02:37:01;96947.69;;;-5.51;100.00
65280;BME280;51878;55.748;48.742;2023-03-01T02:42:06;96880.16;;;-5.90;100.00
65280;BME280;51878;55.748;48.742;2023-03-01T02:47:08;96931.34;;;-5.55;100.00
65280;BME280;51878;55.748;48.742;2023-03-01T02:57:37;96866.28;;;-6.10;100.00
65280;BME280;51878;55.748;48.742;2023-03-01T03:02:40;96834.06;;;-6.31;100.00
65280;BME280;51878;55.748;48.742;2023-03-01T03:07:43;96871.81;;;-6.03;100.00
65280;BME280;51878;55.748;48.742;2023-03-01T03:12:53;96883.88;;;-6.00;100.00
65280;BME280;51878;55.748;48.742;2023-03-01T03:17:58;96963.03;;;-5.55;100.00
65280;BME280;51878;55.748;48.742;2023-03-01T03:23:00;96942.94;;;-5.66;100.00
65280;BME280;51878;55.748;48.742;2023-03-01T03:28:04;96870.13;;;-6.04;100.00
65280;BME280;51878;55.748;48.742;2023-03-01T03:33:12;96950.09;;;-5.58;100.00
65280;BME280;51878;55.748;48.742;2023-03-01T03:38:17;96943.72;;;-5.55;100.00
65280;BME280;51878;55.748;48.742;2023-03-01T03:43:22;96942.63;;;-5.63;100.00
65280;BME280;51878;55.748;48.742;2023-03-01T03:48:25;96909.03;;;-5.88;100.00
65280;BME280;51878;55.748;48.742;2023-03-01T03:53:29;96952.25;;;-5.71;100.00
65280;BME280;51878;55.748;48.742;2023-03-01T03:58:31;96918.59;;;-5.87;100.00
65280;BME280;51878;55.748;48.742;2023-03-01T04:03:34;96900.25;;;-5.97;100.00
65280;BME280;51878;55.748;48.742;2023-03-01T04:08:36;96913.44;;;-5.97;100.00
65280;BME280;51878;55.748;48.742;2023-03-01T04:13:38;96945.47;;;-5.74;100.00
65280;BME280;51878;55.748;48.742;2023-03-01T04:18:44;96883.97;;;-6.20;100.00
65280;BME280;51878;55.748;48.742;2023-03-01T04:23:46;96932.47;;;-5.85;100.00
65280;BME280;51878;55.748;48.742;2023-03-01T04:28:48;96941.75;;;-5.81;100.00
65280;BME280;51878;55.748;48.742;2023-03-01T04:33:54;96880.50;;;-6.20;100.00
65280;BME280;51878;55.748;48.742;2023-03-01T04:38:57;96901.44;;;-6.19;100.00
65280;BME280;51878;55.748;48.742;2023-03-01T04:43:59;96868.31;;;-6.59;100.00
65280;BME280;51878;55.748;48.742;2023-03-01T04:49:03;96922.75;;;-6.03;100.00
65280;BME280;51878;55.748;48.742;2023-03-01T04:54:05;96886.41;;;-6.36;100.00
65280;BME280;51878;55.748;48.742;2023-03-01T04:59:10;96946.25;;;-5.91;100.00
65280;BME280;51878;55.748;48.742;2023-03-01T05:04:14;96954.78;;;-5.52;100.00
65280;BME280;51878;55.748;48.742;2023-03-01T05:09:16;96939.69;;;-5.77;100.00
65280;BME280;51878;55.748;48.742;2023-03-01T05:14:18;96986.59;;;-5.53;100.00
65280;BME280;51878;55.748;48.742;2023-03-01T05:19:22;96891.44;;;-6.15;100.00
65280;BME280;51878;55.748;48.742;2023-03-01T05:24:24;96771.91;;;-7.27;100.00
65280;BME280;51878;55.748;48.742;2023-03-01T05:29:28;96969.53;;;-5.87;100.00
65280;BME280;51878;55.748;48.742;2023-03-01T05:34:35;96956.06;;;-6.11;100.00
65280;BME280;51878;55.748;48.742;2023-03-01T05:39:37;96972.56;;;-5.99;100.00
65280;BME280;51878;55.748;48.742;2023-03-01T05:44:39;96939.81;;;-6.07;100.00
65280;BME280;51878;55.748;48.742;2023-03-01T05:49:42;96876.72;;;-6.18;100.00
65280;BME280;51878;55.748;48.742;2023-03-01T05:54:44;96793.91;;;-5.97;100.00
65280;BME280;51878;55.748;48.742;2023-03-01T05:59:46;96931.13;;;-5.44;100.00
65280;BME280;51878;55.748;48.742;2023-03-01T06:04:48;97029.19;;;-4.93;100.00
65280;BME280;51878;55.748;48.742;2023-03-01T06:09:50;96842.22;;;-5.97;100.00
65280;BME280;51878;55.748;48.742;2023-03-01T06:14:52;97028.50;;;-4.59;100.00
65280;BME280;51878;55.748;48.742;2023-03-01T06:19:54;96964.50;;;-5.07;100.00
65280;BME280;51878;55.748;48.742;2023-03-01T06:24:56;97034.56;;;-4.49;99.54
65280;BME280;51878;55.748;48.742;2023-03-01T06:29:58;97013.84;;;-3.57;94.42
65280;BME280;51878;55.748;48.742;2023-03-01T06:35:00;96959.25;;;-4.45;92.44
65280;BME280;51878;55.748;48.742;2023-03-01T06:40:05;97036.59;;;-4.43;93.86
65280;BME280;51878;55.748;48.742;2023-03-01T06:45:10;97038.84;;;-4.48;96.38
65280;BME280;51878;55.748;48.742;2023-03-01T06:50:14;96975.34;;;-5.28;100.00
65280;BME280;51878;55.748;48.742;2023-03-01T06:55:17;96879.53;;;-6.19;100.00
65280;BME280;51878;55.748;48.742;2023-03-01T07:00:19;97045.09;;;-5.03;100.00
65280;BME280;51878;55.748;48.742;2023-03-01T07:05:22;97014.75;;;-4.45;100.00
65280;BME280;51878;55.748;48.742;2023-03-01T07:10:24;97021.31;;;-4.05;98.25
65280;BME280;51878;55.748;48.742;2023-03-01T07:15:28;96862.06;;;-4.17;85.28
65280;BME280;51878;55.748;48.742;2023-03-01T07:20:30;97026.84;;;-0.01;69.65
65280;BME280;51878;55.748;48.742;2023-03-01T07:25:32;96976.34;;;0.65;57.79
65280;BME280;51878;55.748;48.742;2023-03-01T07:30:34;96992.25;;;-0.93;59.84
65280;BME280;51878;55.748;48.742;2023-03-01T07:35:38;97011.22;;;-1.83;64.56
65280;BME280;51878;55.748;48.742;2023-03-01T07:40:40;97003.41;;;-1.29;61.03
65280;BME280;51878;55.748;48.742;2023-03-01T07:45:43;96968.75;;;-0.58;58.07
65280;BME280;51878;55.748;48.742;2023-03-01T07:50:47;97040.06;;;-1.64;61.75
65280;BME280;51878;55.748;48.742;2023-03-01T07:55:50;97034.00;;;-2.30;61.04
65280;BME280;51878;55.748;48.742;2023-03-01T08:00:53;97028.09;;;-3.42;64.86
65280;BME280;51878;55.748;48.742;2023-03-01T08:05:55;97038.44;;;-3.91;72.25
65280;BME280;51878;55.748;48.742;2023-03-01T08:11:02;97048.97;;;-4.61;85.22
65280;BME280;51878;55.748;48.742;2023-03-01T08:16:07;97062.88;;;-4.41;92.62
65280;BME280;51878;55.748;48.742;2023-03-01T08:21:14;97052.00;;;-2.83;84.85
65280;BME280;51878;55.748;48.742;2023-03-01T08:26:19;97031.13;;;-2.70;79.27
65280;BME280;51878;55.748;48.742;2023-03-01T08:31:33;97012.78;;;-3.99;80.55
65280;BME280;51878;55.748;48.742;2023-03-01T08:36:41;97055.59;;;-4.39;96.22
65280;BME280;51878;55.748;48.742;2023-03-01T08:41:44;97071.91;;;-3.82;98.30
65280;BME280;51878;55.748;48.742;2023-03-01T08:46:49;96992.84;;;-2.83;86.53
65280;BME280;51878;55.748;48.742;2023-03-01T08:51:53;97056.16;;;-3.65;90.26
65280;BME280;51878;55.748;48.742;2023-03-01T08:56:56;96975.19;;;-3.25;84.25
65280;BME280;51878;55.748;48.742;2023-03-01T09:02:00;97066.97;;;-1.83;76.71
65280;BME280;51878;55.748;48.742;2023-03-01T09:07:02;97014.25;;;-2.68;79.19
65280;BME280;51878;55.748;48.742;2023-03-01T09:12:05;97009.59;;;-3.34;82.04
65280;BME280;51878;55.748;48.742;2023-03-01T09:17:07;97055.25;;;-3.74;82.94
65280;BME280;51878;55.748;48.742;2023-03-01T09:22:09;97038.50;;;-4.09;83.09
65280;BME280;51878;55.748;48.742;2023-03-01T09:27:11;97081.25;;;-3.96;76.37
65280;BME280;51878;55.748;48.742;2023-03-01T09:32:14;97017.31;;;-4.09;75.23
65280;BME280;51878;55.748;48.742;2023-03-01T09:37:16;97048.97;;;-4.43;77.20
65280;BME280;51878;55.748;48.742;2023-03-01T09:42:18;97046.66;;;-4.82;77.43
65280;BME280;51878;55.748;48.742;2023-03-01T09:47:26;97070.50;;;-4.74;79.34
65280;BME280;51878;55.748;48.742;2023-03-01T09:52:38;97090.22;;;-4.68;78.99
65280;BME280;51878;55.748;48.742;2023-03-01T10:08:38;97093.19;;;-4.99;77.93
65280;BME280;51878;55.748;48.742;2023-03-01T10:19:27;97097.09;;;-4.75;74.50
65280;BME280;51878;55.748;48.742;2023-03-01T10:24:34;97110.72;;;-4.98;75.73
65280;BME280;51878;55.748;48.742;2023-03-01T10:30:29;96946.72;;;-5.96;73.45
65280;BME280;51878;55.748;48.742;2023-03-01T10:40:21;96956.41;;;-6.24;73.36
65280;BME280;51878;55.748;48.742;2023-03-01T10:50:31;97116.34;;;-5.11;71.41
65280;BME280;51878;55.748;48.742;2023-03-01T10:55:35;97113.38;;;-5.08;71.38
65280;BME280;51878;55.748;48.742;2023-03-01T11:01:01;97131.06;;;-5.46;74.72
65280;BME280;51878;55.748;48.742;2023-03-01T11:11:33;97127.94;;;-5.69;74.48
65280;BME280;51878;55.748;48.742;2023-03-01T11:16:38;97072.91;;;-6.11;72.57
65280;BME280;51878;55.748;48.742;2023-03-01T11:21:47;97139.97;;;-5.56;72.17
65280;BME280;51878;55.748;48.742;2023-03-01T11:26:54;97080.00;;;-6.11;72.35
65280;BME280;51878;55.748;48.742;2023-03-01T11:31:59;97130.59;;;-5.69;72.89
65280;BME280;51878;55.748;48.742;2023-03-01T11:37:20;97089.72;;;-6.12;74.06
65280;BME280;51878;55.748;48.742;2023-03-01T11:49:07;97149.56;;;-5.55;74.92
65280;BME280;51878;55.748;48.742;2023-03-01T11:58:57;97158.91;;;-5.24;74.20
65280;BME280;51878;55.748;48.742;2023-03-01T12:09:34;97162.69;;;-5.26;72.80
65280;BME280;51878;55.748;48.742;2023-03-01T12:14:44;97147.59;;;-5.53;74.31
65280;BME280;51878;55.748;48.742;2023-03-01T12:25:15;97160.97;;;-5.65;73.42
65280;BME280;51878;55.748;48.742;2023-03-01T12:41:15;97115.56;;;-6.35;77.15
65280;BME280;51878;55.748;48.742;2023-03-01T12:51:38;97155.78;;;-6.13;81.42
65280;BME280;51878;55.748;48.742;2023-03-01T12:56:42;97148.00;;;-6.25;83.57
65280;BME280;51878;55.748;48.742;2023-03-01T13:02:01;97171.75;;;-6.05;83.36
65280;BME280;51878;55.748;48.742;2023-03-01T13:18:11;97157.72;;;-6.45;90.29
65280;BME280;51878;55.748;48.742;2023-03-01T13:23:30;97098.72;;;-6.92;93.19
65280;BME280;51878;55.748;48.742;2023-03-01T13:38:57;97117.06;;;-6.52;94.29
65280;BME280;51878;55.748;48.742;2023-03-01T13:44:00;97142.16;;;-6.57;94.60
65280;BME280;51878;55.748;48.742;2023-03-01T13:49:02;97169.06;;;-6.63;94.61
65280;BME280;51878;55.748;48.742;2023-03-01T13:54:04;97141.19;;;-6.66;94.45
65280;BME280;51878;55.748;48.742;2023-03-01T13:59:18;97160.34;;;-6.54;97.37
65280;BME280;51878;55.748;48.742;2023-03-01T14:09:29;97154.19;;;-6.84;100.00
65280;BME280;51878;55.748;48.742;2023-03-01T14:19:47;97151.25;;;-7.00;100.00
65280;BME280;51878;55.748;48.742;2023-03-01T14:25:02;97183.84;;;-6.92;100.00
65280;BME280;51878;55.748;48.742;2023-03-01T14:30:45;97195.63;;;-6.86;100.00
65280;BME280;51878;55.748;48.742;2023-03-01T14:35:53;97168.78;;;-7.11;100.00
65280;BME280;51878;55.748;48.742;2023-03-01T14:41:02;97147.84;;;-7.22;100.00
65280;BME280;51878;55.748;48.742;2023-03-01T14:46:20;97211.53;;;-6.97;100.00
65280;BME280;51878;55.748;48.742;2023-03-01T14:51:22;97217.06;;;-7.00;100.00
65280;BME280;51878;55.748;48.742;2023-03-01T14:56:25;97217.63;;;-6.97;100.00
65280;BME280;51878;55.748;48.742;2023-03-01T15:01:27;97175.13;;;-7.23;100.00
65280;BME280;51878;55.748;48.742;2023-03-01T15:06:29;97180.22;;;-7.31;100.00
65280;BME280;51878;55.748;48.742;2023-03-01T15:11:33;97205.91;;;-7.14;100.00
65280;BME280;51878;55.748;48.742;2023-03-01T15:16:39;97221.56;;;-7.12;100.00
65280;BME280;51878;55.748;48.742;2023-03-01T15:21:44;97212.66;;;-7.21;100.00
65280;BME280;51878;55.748;48.742;2023-03-01T15:27:00;97230.06;;;-6.99;100.00
65280;BME280;51878;55.748;48.742;2023-03-01T15:32:24;97250.31;;;-6.99;100.00
65280;BME280;51878;55.748;48.742;2023-03-01T15:37:47;97041.47;;;-8.21;100.00
65280;BME280;51878;55.748;48.742;2023-03-01T15:42:51;97235.81;;;-7.15;100.00
65280;BME280;51878;55.748;48.742;2023-03-01T15:47:57;97237.13;;;-7.09;100.00
65280;BME280;51878;55.748;48.742;2023-03-01T15:53:11;97246.13;;;-7.12;100.00
65280;BME280;51878;55.748;48.742;2023-03-01T15:58:16;97247.56;;;-7.19;100.00
65280;BME280;51878;55.748;48.742;2023-03-01T16:03:18;97230.97;;;-7.19;100.00
65280;BME280;51878;55.748;48.742;2023-03-01T16:08:23;97213.44;;;-7.30;100.00
65280;BME280;51878;55.748;48.742;2023-03-01T16:13:25;97262.47;;;-7.08;100.00
65280;BME280;51878;55.748;48.742;2023-03-01T16:18:29;97280.66;;;-7.05;100.00
65280;BME280;51878;55.748;48.742;2023-03-01T16:23:31;97175.31;;;-7.66;100.00
65280;BME280;51878;55.748;48.742;2023-03-01T16:28:33;97241.78;;;-7.13;100.00
65280;BME280;51878;55.748;48.742;2023-03-01T16:33:36;97184.66;;;-7.53;100.00
65280;BME280;51878;55.748;48.742;2023-03-01T16:38:38;97189.13;;;-7.43;100.00
65280;BME280;51878;55.748;48.742;2023-03-01T16:43:41;97268.22;;;-6.93;100.00
65280;BME280;51878;55.748;48.742;2023-03-01T16:48:43;97225.28;;;-7.15;100.00
65280;BME280;51878;55.748;48.742;2023-03-01T16:53:46;97247.13;;;-7.03;100.00
65280;BME280;51878;55.748;48.742;2023-03-01T16:58:48;97245.88;;;-6.99;100.00
65280;BME280;51878;55.748;48.742;2023-03-01T17:03:50;97202.13;;;-7.21;100.00
65280;BME280;51878;55.748;48.742;2023-03-01T17:08:53;97228.38;;;-7.10;100.00
65280;BME280;51878;55.748;48.742;2023-03-01T17:13:55;97214.31;;;-7.30;100.00
65280;BME280;51878;55.748;48.742;2023-03-01T17:18:57;97246.81;;;-7.10;100.00
65280;BME280;51878;55.748;48.742;2023-03-01T17:23:59;97244.00;;;-7.18;100.00
65280;BME280;51878;55.748;48.742;2023-03-01T17:29:02;97247.16;;;-7.24;100.00
65280;BME280;51878;55.748;48.742;2023-03-01T17:34:06;97227.06;;;-7.25;100.00
65280;BME280;51878;55.748;48.742;2023-03-01T17:39:11;97131.59;;;-7.88;100.00
65280;BME280;51878;55.748;48.742;2023-03-01T17:44:19;97198.56;;;-7.41;100.00
65280;BME280;51878;55.748;48.742;2023-03-01T17:49:21;97273.56;;;-7.04;100.00
65280;BME280;51878;55.748;48.742;2023-03-01T17:54:24;97255.34;;;-7.17;100.00
65280;BME280;51878;55.748;48.742;2023-03-01T17:59:27;97244.09;;;-7.29;100.00
65280;BME280;51878;55.748;48.742;2023-03-01T18:04:34;97253.22;;;-7.23;100.00
65280;BME280;51878;55.748;48.742;2023-03-01T18:09:36;97281.78;;;-7.19;100.00
65280;BME280;51878;55.748;48.742;2023-03-01T18:14:38;97179.06;;;-7.69;100.00
65280;BME280;51878;55.748;48.742;2023-03-01T18:19:40;97194.69;;;-7.68;100.00
65280;BME280;51878;55.748;48.742;2023-03-01T18:24:46;97054.47;;;-8.50;100.00
65280;BME280;51878;55.748;48.742;2023-03-01T18:29:48;97187.69;;;-7.57;100.00
65280;BME280;51878;55.748;48.742;2023-03-01T18:34:53;97166.47;;;-7.65;100.00
65280;BME280;51878;55.748;48.742;2023-03-01T18:39:55;97196.22;;;-7.44;98.36
65280;BME280;51878;55.748;48.742;2023-03-01T18:44:57;97181.53;;;-7.46;97.57
65280;BME280;51878;55.748;48.742;2023-03-01T18:50:00;97237.13;;;-7.09;95.89
65280;BME280;51878;55.748;48.742;2023-03-01T18:55:06;97169.47;;;-7.49;94.59
65280;BME280;51878;55.748;48.742;2023-03-01T19:00:09;97261.66;;;-6.99;93.59
65280;BME280;51878;55.748;48.742;2023-03-01T19:05:12;97116.97;;;-7.81;92.87
65280;BME280;51878;55.748;48.742;2023-03-01T19:10:17;97223.75;;;-7.17;92.54
65280;BME280;51878;55.748;48.742;2023-03-01T19:15:19;97051.72;;;-8.18;92.41
65280;BME280;51878;55.748;48.742;2023-03-01T19:20:21;97233.09;;;-7.03;92.99
65280;BME280;51878;55.748;48.742;2023-03-01T19:25:23;97210.03;;;-7.21;93.58
65280;BME280;51878;55.748;48.742;2023-03-01T19:30:25;97214.78;;;-7.15;94.89
65280;BME280;51878;55.748;48.742;2023-03-01T19:35:28;97235.50;;;-7.21;96.60
65280;BME280;51878;55.748;48.742;2023-03-01T19:40:30;97201.56;;;-7.55;98.77
65280;BME280;51878;55.748;48.742;2023-03-01T19:45:32;97246.56;;;-7.28;100.00
65280;BME280;51878;55.748;48.742;2023-03-01T19:50:34;97207.09;;;-7.58;100.00
65280;BME280;51878;55.748;48.742;2023-03-01T19:55:38;97246.25;;;-7.34;99.99
65280;BME280;51878;55.748;48.742;2023-03-01T20:00:44;97152.31;;;-7.95;99.25
65280;BME280;51878;55.748;48.742;2023-03-01T20:05:47;97173.59;;;-7.77;98.91
65280;BME280;51878;55.748;48.742;2023-03-01T20:10:50;97230.41;;;-7.44;98.21
65280;BME280;51878;55.748;48.742;2023-03-01T20:15:54;97189.19;;;-7.64;98.53
65280;BME280;51878;55.748;48.742;2023-03-01T20:20:58;97162.16;;;-7.87;97.89
65280;BME280;51878;55.748;48.742;2023-03-01T20:26:06;97196.47;;;-7.68;97.72
65280;BME280;51878;55.748;48.742;2023-03-01T20:31:10;97194.25;;;-7.73;97.12
65280;BME280;51878;55.748;48.742;2023-03-01T20:36:13;97229.34;;;-7.62;97.53
65280;BME280;51878;55.748;48.742;2023-03-01T20:41:15;97236.66;;;-7.45;97.05
65280;BME280;51878;55.748;48.742;2023-03-01T20:46:18;97243.56;;;-7.44;96.02
65280;BME280;51878;55.748;48.742;2023-03-01T20:51:20;97143.41;;;-8.04;95.28
65280;BME280;51878;55.748;48.742;2023-03-01T20:56:22;97226.63;;;-7.51;95.04
65280;BME280;51878;55.748;48.742;2023-03-01T21:01:24;97202.13;;;-7.73;93.77
65280;BME280;51878;55.748;48.742;2023-03-01T21:06:28;97197.63;;;-7.61;93.07
65280;BME280;51878;55.748;48.742;2023-03-01T21:11:30;97117.88;;;-8.13;92.66
65280;BME280;51878;55.748;48.742;2023-03-01T21:16:32;97091.53;;;-8.23;92.86
65280;BME280;51878;55.748;48.742;2023-03-01T21:21:36;97133.59;;;-8.02;93.38
65280;BME280;51878;55.748;48.742;2023-03-01T21:26:38;97147.25;;;-7.87;94.23
65280;BME280;51878;55.748;48.742;2023-03-01T21:31:40;97087.47;;;-8.27;95.80
65280;BME280;51878;55.748;48.742;2023-03-01T21:36:42;97223.69;;;-7.58;96.68
65280;BME280;51878;55.748;48.742;2023-03-01T21:41:44;97222.91;;;-7.49;98.56
65280;BME280;51878;55.748;48.742;2023-03-01T21:46:47;97034.09;;;-8.79;99.38
65280;BME280;51878;55.748;48.742;2023-03-01T21:51:49;97043.88;;;-8.81;100.00
65280;BME280;51878;55.748;48.742;2023-03-01T21:56:51;97167.88;;;-8.03;100.00
65280;BME280;51878;55.748;48.742;2023-03-01T22:01:53;97231.44;;;-7.77;100.00
65280;BME280;51878;55.748;48.742;2023-03-01T22:06:56;97158.03;;;-8.22;100.00
65280;BME280;51878;55.748;48.742;2023-03-01T22:11:58;97184.31;;;-8.11;100.00
65280;BME280;51878;55.748;48.742;2023-03-01T22:17:03;97223.53;;;-7.98;100.00
65280;BME280;51878;55.748;48.742;2023-03-01T22:22:05;97229.84;;;-7.69;100.00
65280;BME280;51878;55.748;48.742;2023-03-01T22:27:07;97166.53;;;-8.19;100.00
65280;BME280;51878;55.748;48.742;2023-03-01T22:32:09;97170.13;;;-8.20;100.00
65280;BME280;51878;55.748;48.742;2023-03-01T22:37:12;97251.50;;;-7.76;100.00
65280;BME280;51878;55.748;48.742;2023-03-01T22:42:15;97180.16;;;-8.25;100.00
65280;BME280;51878;55.748;48.742;2023-03-01T22:47:17;97170.41;;;-8.34;100.00
65280;BME280;51878;55.748;48.742;2023-03-01T22:52:19;97155.56;;;-8.45;100.00
65280;BME280;51878;55.748;48.742;2023-03-01T22:57:22;97197.00;;;-8.27;100.00
65280;BME280;51878;55.748;48.742;2023-03-01T23:02:24;97242.19;;;-8.01;100.00
65280;BME280;51878;55.748;48.742;2023-03-01T23:07:26;97194.03;;;-8.34;100.00
65280;BME280;51878;55.748;48.742;2023-03-01T23:12:28;97159.97;;;-8.45;100.00
65280;BME280;51878;55.748;48.742;2023-03-01T23:17:31;97197.00;;;-8.27;100.00
65280;BME280;51878;55.748;48.742;2023-03-01T23:22:33;97151.41;;;-8.38;100.00
65280;BME280;51878;55.748;48.742;2023-03-01T23:27:36;97066.97;;;-9.07;100.00
65280;BME280;51878;55.748;48.742;2023-03-01T23:32:39;97149.19;;;-8.42;100.00
65280;BME280;51878;55.748;48.742;2023-03-01T23:37:41;97249.91;;;-7.88;100.00
65280;BME280;51878;55.748;48.742;2023-03-01T23:42:45;97025.50;;;-9.13;100.00
65280;BME280;51878;55.748;48.742;2023-03-01T23:47:47;97098.25;;;-8.72;100.00
65280;BME280;51878;55.748;48.742;2023-03-01T23:52:49;97159.91;;;-8.34;100.00
65280;BME280;51878;55.748;48.742;2023-03-01T23:57:52;97118.22;;;-8.48;100.00
